Time;durP1;ratioP1;P1;durP2;ratioP2;P2;SDS_P1;SDS_P2;PMS_P1;PMS_P2;Temp;Humidity;BMP_temperature;BMP_pressure;BME280_temperature;BME280_humidity;BME280_pressure;Samples;Min_cycle;Max_cycle;Signal;HPM_P1;HPM_P2
2024/01/31 00:00:05;;;;;;;1.20;0.40;;;;;;;;;;5038299;28;20177;-69
2024/01/31 00:02:30;;;;;;;1.30;0.60;;;;;;;;;;5052642;28;20182;-69
2024/01/31 00:04:56;;;;;;;2.50;0.50;;;;;;;;;;5037426;28;20231;-69
2024/01/31 00:07:21;;;;;;;4.10;0.70;;;;;;;;;;5033247;28;20225;-68
2024/01/31 00:09:46;;;;;;;7.37;0.80;;;;;;;;;;5038259;28;20185;-67
2024/01/31 00:12:11;;;;;;;3.07;0.70;;;;;;;;;;5034194;28;20650;-68
2024/01/31 00:14:37;;;;;;;4.87;0.73;;;;;;;;;;5032859;28;20185;-67
2024/01/31 00:17:02;;;;;;;1.93;0.70;;;;;;;;;;5012342;28;20208;-68
2024/01/31 00:19:27;;;;;;;2.93;1.17;;;;;;;;;;5015644;28;20239;-68
2024/01/31 00:21:52;;;;;;;1.90;0.70;;;;;;;;;;5047646;28;20198;-69
2024/01/31 00:24:17;;;;;;;1.10;0.40;;;;;;;;;;5048639;28;20174;-69
2024/01/31 00:26:43;;;;;;;2.10;0.67;;;;;;;;;;5049865;28;20763;-69
2024/01/31 00:29:08;;;;;;;0.63;0.40;;;;;;;;;;5048098;28;20185;-69
2024/01/31 00:31:33;;;;;;;3.13;0.97;;;;;;;;;;5040821;28;20189;-69
2024/01/31 00:33:58;;;;;;;2.00;0.70;;;;;;;;;;5051964;28;20705;-69
2024/01/31 00:36:23;;;;;;;3.10;0.53;;;;;;;;;;5051677;28;20177;-70
2024/01/31 00:38:49;;;;;;;4.33;1.00;;;;;;;;;;5049641;28;20205;-69
2024/01/31 00:41:14;;;;;;;2.63;0.73;;;;;;;;;;5054401;28;20207;-69
2024/01/31 00:43:40;;;;;;;4.43;0.80;;;;;;;;;;5050428;28;20246;-68
2024/01/31 00:46:05;;;;;;;2.90;0.53;;;;;;;;;;5052828;28;20182;-69
2024/01/31 00:48:32;;;;;;;1.90;0.67;;;;;;;;;;5043450;28;20205;-69
2024/01/31 00:50:57;;;;;;;3.70;0.90;;;;;;;;;;5028979;28;20635;-68
2024/01/31 00:53:22;;;;;;;3.20;0.57;;;;;;;;;;5040540;28;20307;-69
2024/01/31 00:55:47;;;;;;;1.83;0.70;;;;;;;;;;5040947;28;20207;-69
2024/01/31 00:58:13;;;;;;;1.37;0.83;;;;;;;;;;5031751;28;20689;-69
2024/01/31 01:00:38;;;;;;;5.00;0.87;;;;;;;;;;5047937;28;20228;-69
2024/01/31 01:03:03;;;;;;;2.30;1.00;;;;;;;;;;5050243;28;20265;-69
2024/01/31 01:05:28;;;;;;;3.03;0.93;;;;;;;;;;5040777;28;20198;-69
2024/01/31 01:07:53;;;;;;;3.80;0.60;;;;;;;;;;5049137;28;20217;-67
2024/01/31 01:10:19;;;;;;;4.30;1.00;;;;;;;;;;5048644;28;20177;-69
2024/01/31 01:12:45;;;;;;;1.53;0.70;;;;;;;;;;5046328;28;20201;-69
2024/01/31 01:15:10;;;;;;;2.40;0.77;;;;;;;;;;5053454;28;20625;-69
2024/01/31 01:17:36;;;;;;;2.53;0.70;;;;;;;;;;5049551;28;20244;-69
2024/01/31 01:20:01;;;;;;;5.43;0.80;;;;;;;;;;5052753;28;20177;-69
2024/01/31 01:22:26;;;;;;;1.23;0.80;;;;;;;;;;5047116;28;20676;-69
2024/01/31 01:24:52;;;;;;;2.23;0.50;;;;;;;;;;5046803;28;20267;-68
2024/01/31 01:27:17;;;;;;;2.67;1.47;;;;;;;;;;5046046;28;20320;-69
2024/01/31 01:29:43;;;;;;;2.53;0.60;;;;;;;;;;5050258;28;20185;-68
2024/01/31 01:32:08;;;;;;;1.87;1.10;;;;;;;;;;5059754;28;20169;-69
2024/01/31 01:34:33;;;;;;;2.33;0.73;;;;;;;;;;5054651;28;20209;-69
2024/01/31 01:36:58;;;;;;;1.50;0.30;;;;;;;;;;5058879;28;20250;-69
2024/01/31 01:39:23;;;;;;;4.43;0.77;;;;;;;;;;5053114;28;20165;-67
2024/01/31 01:41:49;;;;;;;5.17;0.97;;;;;;;;;;5030918;28;20182;-69
2024/01/31 01:44:14;;;;;;;0.60;0.60;;;;;;;;;;5040396;28;20205;-69
2024/01/31 01:46:40;;;;;;;1.30;0.60;;;;;;;;;;5050288;28;20173;-68
2024/01/31 01:49:06;;;;;;;4.63;0.93;;;;;;;;;;5051682;28;20183;-69
2024/01/31 01:51:31;;;;;;;3.67;0.97;;;;;;;;;;5049127;28;20182;-69
2024/01/31 01:53:56;;;;;;;2.10;0.60;;;;;;;;;;5048769;28;20194;-68
2024/01/31 01:56:22;;;;;;;2.47;1.03;;;;;;;;;;5047456;28;20177;-69
2024/01/31 01:58:48;;;;;;;2.93;0.77;;;;;;;;;;5053918;28;20543;-69
2024/01/31 02:01:14;;;;;;;5.23;0.80;;;;;;;;;;5050858;28;20170;-68
2024/01/31 02:03:41;;;;;;;2.53;0.80;;;;;;;;;;5031558;28;20680;-69
2024/01/31 02:06:06;;;;;;;7.67;1.60;;;;;;;;;;5053042;28;20180;-69
2024/01/31 02:10:58;;;;;;;3.27;1.00;;;;;;;;;;5030632;28;20595;-71
2024/01/31 02:13:23;;;;;;;2.33;0.70;;;;;;;;;;5032570;28;20190;-71
2024/01/31 02:15:51;;;;;;;8.13;1.03;;;;;;;;;;5030195;28;20189;-70
2024/01/31 02:18:17;;;;;;;1.33;0.87;;;;;;;;;;5011093;28;20276;-71
2024/01/31 02:20:42;;;;;;;1.70;1.50;;;;;;;;;;5029548;28;20231;-71
2024/01/31 02:23:07;;;;;;;1.63;1.03;;;;;;;;;;5027764;28;20529;-72
2024/01/31 02:25:33;;;;;;;3.80;1.20;;;;;;;;;;5031898;28;20206;-70
2024/01/31 02:27:58;;;;;;;5.87;1.60;;;;;;;;;;5028733;28;20582;-70
2024/01/31 02:30:23;;;;;;;2.83;1.53;;;;;;;;;;5028716;28;20747;-69
2024/01/31 02:32:48;;;;;;;3.40;1.40;;;;;;;;;;5027039;28;20744;-70
2024/01/31 02:35:13;;;;;;;3.63;1.33;;;;;;;;;;5030527;28;20265;-70
2024/01/31 02:37:42;;;;;;;3.23;1.70;;;;;;;;;;5024145;28;20206;-70
2024/01/31 02:40:08;;;;;;;1.90;1.40;;;;;;;;;;5028988;28;20252;-70
2024/01/31 02:42:33;;;;;;;4.33;2.00;;;;;;;;;;5029807;28;20646;-71
2024/01/31 02:44:58;;;;;;;4.50;1.90;;;;;;;;;;5029276;28;20620;-71
2024/01/31 02:47:23;;;;;;;2.17;1.83;;;;;;;;;;5027889;28;20248;-72
2024/01/31 02:49:48;;;;;;;5.87;2.20;;;;;;;;;;5026310;28;20186;-71
2024/01/31 02:52:14;;;;;;;5.43;2.37;;;;;;;;;;5029543;28;20253;-70
2024/01/31 02:54:39;;;;;;;2.30;1.80;;;;;;;;;;5006828;28;20539;-71
2024/01/31 02:57:04;;;;;;;5.00;2.17;;;;;;;;;;5025645;28;20233;-70
2024/01/31 02:59:29;;;;;;;4.83;2.47;;;;;;;;;;5030356;28;20174;-70
2024/01/31 03:01:54;;;;;;;5.83;2.57;;;;;;;;;;5008630;28;20175;-70
2024/01/31 03:04:20;;;;;;;3.90;2.50;;;;;;;;;;5028541;28;20183;-70
2024/01/31 03:06:45;;;;;;;6.33;2.87;;;;;;;;;;5011452;28;20182;-70
2024/01/31 03:09:10;;;;;;;4.20;2.50;;;;;;;;;;5025919;28;20182;-71
2024/01/31 03:11:35;;;;;;;7.33;2.90;;;;;;;;;;5029669;28;20662;-70
2024/01/31 03:14:00;;;;;;;4.60;2.23;;;;;;;;;;5020451;28;20588;-70
2024/01/31 03:16:26;;;;;;;7.20;2.50;;;;;;;;;;5027965;28;20193;-72
2024/01/31 03:18:53;;;;;;;3.93;2.10;;;;;;;;;;5009212;28;20203;-71
2024/01/31 03:21:18;;;;;;;3.63;2.20;;;;;;;;;;5030632;28;20177;-71
2024/01/31 03:23:44;;;;;;;4.40;2.80;;;;;;;;;;5028953;28;20178;-70
2024/01/31 03:26:11;;;;;;;4.37;2.23;;;;;;;;;;5031423;28;20174;-70
2024/01/31 03:28:36;;;;;;;3.33;2.43;;;;;;;;;;5023612;28;20203;-71
2024/01/31 03:31:01;;;;;;;4.03;2.30;;;;;;;;;;5028591;28;20228;-71
2024/01/31 03:33:26;;;;;;;8.90;2.73;;;;;;;;;;5020256;28;20268;-71
2024/01/31 03:35:52;;;;;;;3.47;2.30;;;;;;;;;;5022584;28;20556;-71
2024/01/31 03:38:17;;;;;;;11.43;3.00;;;;;;;;;;5025274;28;20230;-71
2024/01/31 03:40:42;;;;;;;5.80;2.33;;;;;;;;;;5028604;28;20626;-70
2024/01/31 03:43:07;;;;;;;5.03;2.83;;;;;;;;;;5031044;28;20190;-70
2024/01/31 03:45:32;;;;;;;5.33;2.50;;;;;;;;;;5027566;28;20206;-70
2024/01/31 03:47:58;;;;;;;5.90;2.60;;;;;;;;;;5028464;28;20293;-70
2024/01/31 03:50:23;;;;;;;5.10;2.43;;;;;;;;;;5024849;28;20622;-70
2024/01/31 03:52:48;;;;;;;3.03;2.27;;;;;;;;;;5026460;28;20202;-70
2024/01/31 03:55:14;;;;;;;2.57;1.97;;;;;;;;;;5012865;28;20658;-71
2024/01/31 03:57:39;;;;;;;6.23;2.13;;;;;;;;;;5025582;28;20216;-71
2024/01/31 04:00:05;;;;;;;4.37;2.77;;;;;;;;;;5029050;28;20587;-71
2024/01/31 04:02:30;;;;;;;5.63;2.40;;;;;;;;;;5004928;28;20182;-71
2024/01/31 04:04:55;;;;;;;6.13;2.47;;;;;;;;;;5024559;28;20571;-70
2024/01/31 04:07:21;;;;;;;3.77;2.27;;;;;;;;;;5024770;28;20665;-70
2024/01/31 04:09:46;;;;;;;6.20;2.53;;;;;;;;;;5027310;28;20198;-71
2024/01/31 04:12:11;;;;;;;4.77;2.97;;;;;;;;;;5025268;28;20213;-72
2024/01/31 04:14:36;;;;;;;5.40;3.03;;;;;;;;;;5027843;28;20201;-72
2024/01/31 04:17:02;;;;;;;8.80;2.50;;;;;;;;;;5025071;28;20698;-70
2024/01/31 04:19:27;;;;;;;5.83;2.83;;;;;;;;;;5007419;28;20194;-71
2024/01/31 04:21:53;;;;;;;4.13;1.97;;;;;;;;;;5021350;28;20183;-70
2024/01/31 04:24:18;;;;;;;6.33;2.37;;;;;;;;;;5030100;28;20178;-70
2024/01/31 04:26:44;;;;;;;3.20;2.50;;;;;;;;;;5022940;28;20241;-71
2024/01/31 04:29:09;;;;;;;5.23;2.30;;;;;;;;;;5027974;28;20190;-71
2024/01/31 04:31:34;;;;;;;7.80;2.83;;;;;;;;;;5030542;28;20190;-70
2024/01/31 04:34:00;;;;;;;5.10;2.30;;;;;;;;;;5027085;28;20695;-71
2024/01/31 04:36:26;;;;;;;3.23;2.23;;;;;;;;;;5028035;28;20261;-70
2024/01/31 04:38:51;;;;;;;7.63;2.30;;;;;;;;;;5020922;28;20240;-72
2024/01/31 04:41:16;;;;;;;5.90;2.30;;;;;;;;;;5027322;28;20182;-72
2024/01/31 04:43:41;;;;;;;5.73;2.30;;;;;;;;;;5027843;28;20677;-69
2024/01/31 04:46:07;;;;;;;2.90;2.27;;;;;;;;;;5023429;28;20178;-70
2024/01/31 04:48:32;;;;;;;5.13;2.30;;;;;;;;;;5027501;28;20284;-71
2024/01/31 04:50:57;;;;;;;3.67;2.57;;;;;;;;;;5015349;28;20269;-70
2024/01/31 04:53:22;;;;;;;3.97;2.37;;;;;;;;;;5013805;28;20552;-70
2024/01/31 04:55:47;;;;;;;5.27;2.03;;;;;;;;;;5009490;28;20182;-73
2024/01/31 04:58:13;;;;;;;3.37;1.73;;;;;;;;;;5027252;28;20201;-70
2024/01/31 05:00:39;;;;;;;5.07;2.27;;;;;;;;;;5031433;28;20174;-70
2024/01/31 05:03:04;;;;;;;3.50;2.03;;;;;;;;;;5033219;28;20166;-70
2024/01/31 05:05:29;;;;;;;3.40;1.60;;;;;;;;;;5028982;28;20261;-72
2024/01/31 05:07:54;;;;;;;3.07;1.50;;;;;;;;;;5012510;28;20230;-70
2024/01/31 05:10:20;;;;;;;1.73;1.50;;;;;;;;;;5032168;28;20198;-71
2024/01/31 05:12:45;;;;;;;2.73;1.67;;;;;;;;;;5031989;28;20477;-71
2024/01/31 05:15:10;;;;;;;2.23;1.80;;;;;;;;;;5011131;28;20214;-71
2024/01/31 05:17:35;;;;;;;4.97;1.67;;;;;;;;;;5024478;28;20761;-72
2024/01/31 05:20:01;;;;;;;2.57;1.67;;;;;;;;;;5032791;28;20236;-70
2024/01/31 05:22:26;;;;;;;4.60;2.57;;;;;;;;;;5012842;28;20174;-70
2024/01/31 05:24:51;;;;;;;5.63;2.60;;;;;;;;;;5015408;28;20170;-70
2024/01/31 05:27:16;;;;;;;3.53;2.03;;;;;;;;;;5029590;28;20232;-71
2024/01/31 05:29:42;;;;;;;5.13;2.60;;;;;;;;;;5027135;28;20537;-72
2024/01/31 05:32:07;;;;;;;7.43;2.97;;;;;;;;;;5029825;28;20178;-71
2024/01/31 05:34:32;;;;;;;3.27;2.40;;;;;;;;;;5020347;28;20232;-71
2024/01/31 05:36:58;;;;;;;11.67;3.60;;;;;;;;;;5030670;28;20178;-71
2024/01/31 05:39:23;;;;;;;8.53;3.30;;;;;;;;;;5012989;28;20277;-72
2024/01/31 05:41:48;;;;;;;9.13;3.77;;;;;;;;;;5032553;28;20178;-71
2024/01/31 05:44:13;;;;;;;7.10;3.40;;;;;;;;;;5028951;28;20179;-70
2024/01/31 05:46:39;;;;;;;7.77;4.13;;;;;;;;;;5028160;28;20182;-71
2024/01/31 05:49:04;;;;;;;10.20;3.67;;;;;;;;;;5027449;28;20629;-71
2024/01/31 05:51:29;;;;;;;7.00;3.53;;;;;;;;;;5032650;28;20212;-72
2024/01/31 05:53:54;;;;;;;8.33;4.40;;;;;;;;;;5028400;28;20202;-72
2024/01/31 05:56:20;;;;;;;8.47;4.17;;;;;;;;;;5022457;28;20181;-71
2024/01/31 05:58:45;;;;;;;9.97;5.57;;;;;;;;;;5011097;28;20226;-70
2024/01/31 06:01:10;;;;;;;10.30;4.97;;;;;;;;;;5026096;28;20527;-71
2024/01/31 06:03:36;;;;;;;11.10;6.17;;;;;;;;;;5030441;28;20185;-71
2024/01/31 06:06:01;;;;;;;11.23;5.73;;;;;;;;;;5030530;28;20672;-72
2024/01/31 06:08:26;;;;;;;13.87;8.00;;;;;;;;;;5028623;28;20737;-71
2024/01/31 06:10:54;;;;;;;11.67;7.07;;;;;;;;;;5030337;28;20224;-70
2024/01/31 06:13:22;;;;;;;11.87;7.93;;;;;;;;;;5028017;28;20281;-70
2024/01/31 06:15:48;;;;;;;14.47;7.23;;;;;;;;;;5022852;28;20179;-70
2024/01/31 06:18:15;;;;;;;13.63;8.43;;;;;;;;;;5026718;28;20320;-71
2024/01/31 06:20:42;;;;;;;11.87;7.50;;;;;;;;;;5008411;28;20178;-71
2024/01/31 06:23:09;;;;;;;14.87;8.10;;;;;;;;;;5027775;28;20178;-70
2024/01/31 06:25:35;;;;;;;11.93;7.87;;;;;;;;;;5030248;28;20189;-71
2024/01/31 06:28:00;;;;;;;11.43;7.23;;;;;;;;;;5025093;28;20598;-72
2024/01/31 06:30:31;;;;;;;10.10;6.87;;;;;;;;;;5031202;28;20650;-71
2024/01/31 06:33:05;;;;;;;10.77;7.10;;;;;;;;;;5003117;28;20299;-71
2024/01/31 06:35:31;;;;;;;11.40;6.40;;;;;;;;;;5023889;28;20184;-72
2024/01/31 06:37:56;;;;;;;9.63;6.53;;;;;;;;;;5023736;28;20206;-71
2024/01/31 06:40:22;;;;;;;13.77;6.87;;;;;;;;;;5028146;28;20662;-71
2024/01/31 06:42:48;;;;;;;10.17;6.67;;;;;;;;;;5032612;28;20225;-71
2024/01/31 06:45:13;;;;;;;8.53;5.50;;;;;;;;;;5009815;28;20221;-71
2024/01/31 06:47:39;;;;;;;8.47;5.23;;;;;;;;;;5023120;28;20380;-70
2024/01/31 06:50:05;;;;;;;6.07;4.93;;;;;;;;;;5023285;28;20265;-71
2024/01/31 06:52:30;;;;;;;5.77;4.63;;;;;;;;;;5010804;28;20232;-71
2024/01/31 06:54:55;;;;;;;7.20;4.87;;;;;;;;;;5025664;28;20199;-71
2024/01/31 06:57:21;;;;;;;7.23;5.03;;;;;;;;;;5029170;28;20244;-70
2024/01/31 06:59:46;;;;;;;7.57;5.17;;;;;;;;;;5010571;28;20265;-70
2024/01/31 07:02:11;;;;;;;6.60;4.63;;;;;;;;;;5022413;28;20186;-70
2024/01/31 07:04:37;;;;;;;6.60;4.33;;;;;;;;;;5026587;28;20178;-71
2024/01/31 07:07:03;;;;;;;5.23;4.20;;;;;;;;;;5019267;28;20203;-71
2024/01/31 07:09:29;;;;;;;7.33;4.70;;;;;;;;;;5030078;28;20202;-70
2024/01/31 07:11:54;;;;;;;8.03;4.40;;;;;;;;;;5009833;28;20187;-72
2024/01/31 07:14:19;;;;;;;7.33;4.50;;;;;;;;;;5008144;28;20210;-71
2024/01/31 07:16:44;;;;;;;8.27;4.70;;;;;;;;;;5026007;28;20230;-71
2024/01/31 07:19:10;;;;;;;7.47;4.43;;;;;;;;;;5003999;28;20186;-71
2024/01/31 07:21:35;;;;;;;7.77;4.43;;;;;;;;;;5029248;28;20210;-70
2024/01/31 07:24:00;;;;;;;6.73;4.30;;;;;;;;;;5024764;28;20178;-70
2024/01/31 07:26:29;;;;;;;7.57;4.53;;;;;;;;;;5012976;28;20224;-71
2024/01/31 07:28:55;;;;;;;7.67;5.00;;;;;;;;;;5024292;28;20205;-72
2024/01/31 07:31:20;;;;;;;7.33;4.63;;;;;;;;;;5009587;28;20190;-72
2024/01/31 07:33:45;;;;;;;9.63;4.30;;;;;;;;;;5023200;28;20194;-70
2024/01/31 07:36:10;;;;;;;9.67;3.60;;;;;;;;;;5017240;28;20202;-71
2024/01/31 07:38:35;;;;;;;6.37;4.10;;;;;;;;;;5005654;28;20205;-70
2024/01/31 07:41:01;;;;;;;7.07;4.40;;;;;;;;;;5023034;28;20201;-70
2024/01/31 07:43:26;;;;;;;7.10;3.90;;;;;;;;;;5025471;28;20186;-71
2024/01/31 07:45:52;;;;;;;5.80;4.20;;;;;;;;;;5007125;28;20564;-71
2024/01/31 07:48:18;;;;;;;8.17;4.00;;;;;;;;;;5029450;28;20233;-71
2024/01/31 07:50:43;;;;;;;5.93;4.10;;;;;;;;;;5021720;28;20237;-71
2024/01/31 07:53:09;;;;;;;4.93;4.03;;;;;;;;;;5027329;28;20665;-70
2024/01/31 07:55:34;;;;;;;4.67;3.53;;;;;;;;;;5017691;28;20182;-71
2024/01/31 07:58:00;;;;;;;6.80;3.53;;;;;;;;;;5028111;28;20202;-71
2024/01/31 08:00:25;;;;;;;4.03;3.37;;;;;;;;;;5029629;28;20192;-71
2024/01/31 08:02:50;;;;;;;4.93;3.63;;;;;;;;;;5029107;28;20197;-71
2024/01/31 08:05:15;;;;;;;7.93;3.60;;;;;;;;;;5030737;28;20204;-71
2024/01/31 08:07:44;;;;;;;3.70;3.00;;;;;;;;;;5027086;28;20284;-71
2024/01/31 08:10:13;;;;;;;3.80;2.73;;;;;;;;;;5042076;22;20261;-71
2024/01/31 08:12:42;;;;;;;5.57;2.97;;;;;;;;;;5063857;28;20239;-70
2024/01/31 08:15:08;;;;;;;6.07;3.10;;;;;;;;;;5052767;28;20184;-71
2024/01/31 08:17:33;;;;;;;4.47;3.10;;;;;;;;;;5049057;28;20181;-70
2024/01/31 08:19:58;;;;;;;4.23;3.17;;;;;;;;;;5054989;28;20205;-69
2024/01/31 08:22:23;;;;;;;6.00;3.87;;;;;;;;;;5049264;28;20275;-68
2024/01/31 08:24:49;;;;;;;6.07;3.20;;;;;;;;;;5048011;28;20196;-69
2024/01/31 08:27:15;;;;;;;4.80;3.63;;;;;;;;;;5049015;28;20657;-69
2024/01/31 08:29:40;;;;;;;5.23;3.60;;;;;;;;;;5050153;28;20208;-70
2024/01/31 08:32:05;;;;;;;6.80;3.70;;;;;;;;;;5049125;28;20670;-69
2024/01/31 08:34:31;;;;;;;7.67;4.63;;;;;;;;;;5032578;28;20205;-69
2024/01/31 08:36:56;;;;;;;7.60;3.80;;;;;;;;;;5050415;28;20295;-69
2024/01/31 08:39:22;;;;;;;6.30;3.50;;;;;;;;;;5025856;28;20200;-69
2024/01/31 08:41:48;;;;;;;5.57;4.00;;;;;;;;;;5047964;28;20653;-69
2024/01/31 08:44:13;;;;;;;5.90;3.73;;;;;;;;;;5041369;28;20180;-68
2024/01/31 08:46:39;;;;;;;6.93;3.50;;;;;;;;;;5049296;28;20173;-69
2024/01/31 08:49:04;;;;;;;9.90;4.20;;;;;;;;;;5032278;28;20284;-68
2024/01/31 08:51:30;;;;;;;4.57;3.77;;;;;;;;;;5046673;28;20182;-69
2024/01/31 08:53:55;;;;;;;9.97;4.73;;;;;;;;;;5048069;28;20243;-68
2024/01/31 08:56:21;;;;;;;5.47;3.60;;;;;;;;;;5038238;28;20193;-68
2024/01/31 08:58:46;;;;;;;5.17;4.00;;;;;;;;;;5043699;28;20182;-69
2024/01/31 09:01:11;;;;;;;5.60;4.20;;;;;;;;;;5043202;28;20253;-68
2024/01/31 09:03:36;;;;;;;6.60;3.97;;;;;;;;;;5046840;28;20280;-68
2024/01/31 09:06:01;;;;;;;7.10;4.70;;;;;;;;;;5046443;28;20236;-68
2024/01/31 09:08:27;;;;;;;6.53;4.67;;;;;;;;;;5050041;28;20231;-68
2024/01/31 09:10:52;;;;;;;9.30;4.97;;;;;;;;;;5023442;28;20705;-68
2024/01/31 09:13:17;;;;;;;7.90;5.03;;;;;;;;;;5032747;28;20617;-68
2024/01/31 09:15:42;;;;;;;6.53;4.50;;;;;;;;;;5038546;28;20649;-69
2024/01/31 09:18:08;;;;;;;7.80;4.33;;;;;;;;;;5044082;28;20257;-69
2024/01/31 09:20:33;;;;;;;6.53;4.57;;;;;;;;;;5019483;28;20209;-68
2024/01/31 09:22:58;;;;;;;5.13;3.87;;;;;;;;;;5034946;28;20190;-68
2024/01/31 09:25:23;;;;;;;6.27;4.00;;;;;;;;;;5043157;28;20235;-68
2024/01/31 09:27:49;;;;;;;8.07;3.87;;;;;;;;;;5044239;28;20182;-68
2024/01/31 09:30:14;;;;;;;10.43;4.60;;;;;;;;;;5028286;28;20210;-68
2024/01/31 09:32:39;;;;;;;9.03;4.23;;;;;;;;;;5029910;28;20228;-67
2024/01/31 09:35:05;;;;;;;9.90;4.00;;;;;;;;;;5039422;28;20497;-68
2024/01/31 09:37:32;;;;;;;8.03;5.60;;;;;;;;;;5046370;28;20192;-68
2024/01/31 09:39:57;;;;;;;7.57;4.80;;;;;;;;;;5028045;28;20195;-68
2024/01/31 09:42:22;;;;;;;8.37;5.27;;;;;;;;;;5026182;28;20212;-68
2024/01/31 09:44:49;;;;;;;7.27;4.57;;;;;;;;;;5035290;28;20182;-69
2024/01/31 09:47:14;;;;;;;8.30;4.60;;;;;;;;;;5050350;28;20617;-68
2024/01/31 09:49:39;;;;;;;10.77;5.80;;;;;;;;;;5045238;28;20189;-69
2024/01/31 09:52:05;;;;;;;8.47;5.10;;;;;;;;;;5044753;28;20181;-68
2024/01/31 09:54:30;;;;;;;9.70;4.80;;;;;;;;;;5035077;28;20224;-68
2024/01/31 09:56:57;;;;;;;8.73;4.73;;;;;;;;;;5050110;28;20181;-68
2024/01/31 09:59:23;;;;;;;9.53;5.37;;;;;;;;;;5038734;28;20580;-69
2024/01/31 10:01:49;;;;;;;11.20;4.93;;;;;;;;;;5043876;28;20178;-67
2024/01/31 10:04:14;;;;;;;8.30;4.87;;;;;;;;;;5037039;28;20178;-69
2024/01/31 10:06:40;;;;;;;11.60;5.80;;;;;;;;;;5048462;28;20178;-68
2024/01/31 10:09:06;;;;;;;12.00;5.30;;;;;;;;;;5043070;28;20206;-68
2024/01/31 10:11:31;;;;;;;9.47;5.20;;;;;;;;;;5023973;28;20209;-68
2024/01/31 10:13:56;;;;;;;14.67;6.43;;;;;;;;;;5038908;28;20620;-68
2024/01/31 10:16:22;;;;;;;8.27;5.60;;;;;;;;;;5043628;28;20591;-67
2024/01/31 10:18:47;;;;;;;13.07;5.80;;;;;;;;;;5044063;28;20180;-68
2024/01/31 10:21:12;;;;;;;9.93;5.83;;;;;;;;;;5023689;28;20174;-67
2024/01/31 10:23:37;;;;;;;10.43;5.97;;;;;;;;;;5038204;28;20177;-68
2024/01/31 10:26:02;;;;;;;15.70;5.67;;;;;;;;;;5042226;28;20177;-68
2024/01/31 10:28:28;;;;;;;10.47;5.80;;;;;;;;;;5049910;28;20181;-68
2024/01/31 10:30:53;;;;;;;14.07;6.80;;;;;;;;;;5041395;28;20285;-68
2024/01/31 10:33:20;;;;;;;11.30;6.53;;;;;;;;;;5033818;28;20297;-68
2024/01/31 10:35:47;;;;;;;12.70;6.30;;;;;;;;;;5044389;28;20642;-68
2024/01/31 10:38:12;;;;;;;10.80;6.80;;;;;;;;;;5047841;28;20696;-68
2024/01/31 10:40:39;;;;;;;17.07;7.90;;;;;;;;;;5041924;28;20328;-68
2024/01/31 10:43:05;;;;;;;15.70;8.70;;;;;;;;;;5043034;28;20269;-70
2024/01/31 10:45:33;;;;;;;11.17;7.53;;;;;;;;;;5044117;28;20210;-69
2024/01/31 10:47:59;;;;;;;14.93;8.30;;;;;;;;;;5030948;28;20265;-70
2024/01/31 10:50:24;;;;;;;16.43;9.27;;;;;;;;;;5049240;28;20384;-69
2024/01/31 10:52:50;;;;;;;14.87;8.60;;;;;;;;;;5033994;28;20214;-70
2024/01/31 10:55:16;;;;;;;17.60;9.00;;;;;;;;;;5050443;28;20448;-69
2024/01/31 10:57:42;;;;;;;14.43;9.17;;;;;;;;;;5039814;28;20839;-68
2024/01/31 11:00:21;;;;;;;20.20;9.63;;;;;;;;;;5021370;28;20209;-69
2024/01/31 11:02:46;;;;;;;18.60;9.50;;;;;;;;;;5046598;28;20186;-68
2024/01/31 11:05:13;;;;;;;17.07;9.00;;;;;;;;;;5051536;28;20169;-68
2024/01/31 11:07:47;;;;;;;18.97;10.30;;;;;;;;;;5036093;28;20253;-68
2024/01/31 11:10:20;;;;;;;22.10;10.20;;;;;;;;;;5024487;28;20621;-68
2024/01/31 11:13:04;;;;;;;19.57;9.77;;;;;;;;;;5021459;28;20210;-69
2024/01/31 11:15:29;;;;;;;20.10;10.23;;;;;;;;;;5045651;28;20177;-69
2024/01/31 11:18:00;;;;;;;20.27;11.47;;;;;;;;;;5038827;28;20178;-68
2024/01/31 11:20:26;;;;;;;19.80;11.27;;;;;;;;;;5034528;28;20190;-68
2024/01/31 11:22:52;;;;;;;20.77;10.70;;;;;;;;;;5023730;28;20238;-67
2024/01/31 11:25:17;;;;;;;23.17;11.27;;;;;;;;;;5031159;28;20269;-69
2024/01/31 11:27:44;;;;;;;22.87;11.17;;;;;;;;;;5027967;28;20628;-69
2024/01/31 11:30:09;;;;;;;22.97;11.73;;;;;;;;;;5048010;28;20401;-69
2024/01/31 11:32:35;;;;;;;20.90;10.73;;;;;;;;;;5034537;28;20654;-69
2024/01/31 11:35:04;;;;;;;21.93;11.20;;;;;;;;;;5042474;28;20209;-69
2024/01/31 11:37:30;;;;;;;19.03;10.33;;;;;;;;;;5022688;28;20190;-69
2024/01/31 11:39:55;;;;;;;23.63;11.67;;;;;;;;;;5046732;28;20193;-69
2024/01/31 11:42:20;;;;;;;20.47;11.03;;;;;;;;;;5041497;28;20592;-68
2024/01/31 11:44:45;;;;;;;20.30;10.47;;;;;;;;;;5047745;28;20193;-69
2024/01/31 11:47:11;;;;;;;20.37;10.67;;;;;;;;;;5048824;28;20184;-68
2024/01/31 11:49:36;;;;;;;20.07;12.07;;;;;;;;;;5039755;28;20689;-69
2024/01/31 11:52:01;;;;;;;21.57;11.10;;;;;;;;;;5041734;28;20177;-68
2024/01/31 11:54:28;;;;;;;20.40;11.27;;;;;;;;;;5047371;28;20217;-68
2024/01/31 11:56:53;;;;;;;21.03;10.43;;;;;;;;;;5045252;28;20173;-68
2024/01/31 11:59:18;;;;;;;22.63;11.83;;;;;;;;;;5041460;28;20221;-69
2024/01/31 12:01:44;;;;;;;22.47;11.77;;;;;;;;;;5038430;28;20186;-68
2024/01/31 12:04:09;;;;;;;19.23;12.03;;;;;;;;;;5050209;28;20559;-69
2024/01/31 12:06:34;;;;;;;22.93;12.07;;;;;;;;;;5040376;28;20178;-68
2024/01/31 12:09:00;;;;;;;15.37;9.43;;;;;;;;;;5043074;28;20243;-68
2024/01/31 12:11:25;;;;;;;16.77;10.27;;;;;;;;;;5035078;28;20201;-69
2024/01/31 12:13:50;;;;;;;15.20;9.20;;;;;;;;;;5041768;28;20194;-69
2024/01/31 12:16:15;;;;;;;18.30;10.40;;;;;;;;;;5033012;28;20661;-68
2024/01/31 12:18:41;;;;;;;16.63;9.93;;;;;;;;;;5047817;28;20174;-68
2024/01/31 12:21:06;;;;;;;15.67;10.57;;;;;;;;;;5035384;28;20178;-67
2024/01/31 12:23:32;;;;;;;19.13;10.47;;;;;;;;;;5051114;28;20181;-68
2024/01/31 12:25:57;;;;;;;19.13;11.63;;;;;;;;;;5042678;28;20558;-68
2024/01/31 12:28:23;;;;;;;17.17;10.83;;;;;;;;;;5042422;28;20261;-68
2024/01/31 12:30:48;;;;;;;14.63;9.90;;;;;;;;;;5042654;28;20218;-68
2024/01/31 12:33:13;;;;;;;15.57;9.53;;;;;;;;;;5048893;28;20201;-68
2024/01/31 12:35:39;;;;;;;15.30;9.57;;;;;;;;;;5045653;28;20167;-67
2024/01/31 12:38:04;;;;;;;15.63;9.47;;;;;;;;;;5040596;28;20557;-68
2024/01/31 12:40:29;;;;;;;13.17;9.40;;;;;;;;;;5040918;28;20197;-68
2024/01/31 12:42:56;;;;;;;10.90;8.47;;;;;;;;;;5045634;28;20227;-69
2024/01/31 12:45:22;;;;;;;9.27;8.00;;;;;;;;;;5044939;28;20177;-68
2024/01/31 12:47:48;;;;;;;10.77;7.60;;;;;;;;;;5026135;28;20220;-68
2024/01/31 12:50:13;;;;;;;10.80;7.73;;;;;;;;;;5047336;28;20579;-69
2024/01/31 12:52:38;;;;;;;10.87;7.63;;;;;;;;;;5034076;28;20265;-68
2024/01/31 12:55:03;;;;;;;11.67;6.87;;;;;;;;;;5045621;28;20297;-69
2024/01/31 12:57:28;;;;;;;10.10;7.13;;;;;;;;;;5042112;28;20204;-69
2024/01/31 12:59:54;;;;;;;8.70;6.57;;;;;;;;;;5040669;28;20198;-69
2024/01/31 13:02:19;;;;;;;12.10;7.37;;;;;;;;;;5047301;28;20182;-68
2024/01/31 13:04:44;;;;;;;9.43;7.00;;;;;;;;;;5043815;28;20186;-68
2024/01/31 13:07:10;;;;;;;10.20;6.33;;;;;;;;;;5035862;28;20179;-69
2024/01/31 13:09:35;;;;;;;9.17;6.47;;;;;;;;;;5038380;28;20206;-69
2024/01/31 13:12:00;;;;;;;10.47;7.27;;;;;;;;;;5053146;28;20181;-67
2024/01/31 13:14:25;;;;;;;8.37;6.00;;;;;;;;;;5038838;28;20209;-68
2024/01/31 13:16:50;;;;;;;6.97;5.40;;;;;;;;;;5024951;28;20181;-68
2024/01/31 13:19:20;;;;;;;9.70;6.73;;;;;;;;;;5047365;28;20201;-68
2024/01/31 13:21:49;;;;;;;12.47;7.60;;;;;;;;;;5031414;28;20644;-68
2024/01/31 13:24:14;;;;;;;8.70;6.00;;;;;;;;;;5049607;28;20239;-69
2024/01/31 13:26:39;;;;;;;10.50;5.47;;;;;;;;;;5036635;28;20599;-68
2024/01/31 13:29:04;;;;;;;7.77;5.37;;;;;;;;;;5050762;28;20237;-68
2024/01/31 13:31:30;;;;;;;7.20;5.17;;;;;;;;;;5050574;28;20181;-69
2024/01/31 13:33:55;;;;;;;5.80;4.70;;;;;;;;;;5023333;28;20209;-69
2024/01/31 13:36:20;;;;;;;7.37;4.90;;;;;;;;;;5027712;28;20169;-68
2024/01/31 13:38:46;;;;;;;12.67;4.67;;;;;;;;;;5050850;28;20239;-68
2024/01/31 13:41:11;;;;;;;8.30;4.63;;;;;;;;;;5048672;28;20264;-69
2024/01/31 13:43:36;;;;;;;5.87;4.70;;;;;;;;;;5035657;28;20563;-69
2024/01/31 13:46:01;;;;;;;6.77;4.77;;;;;;;;;;5028577;28;20182;-67
2024/01/31 13:48:27;;;;;;;8.63;4.47;;;;;;;;;;5032429;28;20174;-68
2024/01/31 13:50:52;;;;;;;4.80;4.30;;;;;;;;;;5050973;28;20519;-69
2024/01/31 13:53:17;;;;;;;5.10;4.57;;;;;;;;;;5043740;28;20573;-68
2024/01/31 13:55:42;;;;;;;8.97;5.13;;;;;;;;;;5040909;28;20174;-69
2024/01/31 13:58:08;;;;;;;4.37;3.83;;;;;;;;;;5051383;28;20228;-68
2024/01/31 14:00:33;;;;;;;6.30;4.00;;;;;;;;;;5030466;28;20668;-68
2024/01/31 14:02:58;;;;;;;7.73;4.67;;;;;;;;;;5029490;28;20213;-69
2024/01/31 14:05:23;;;;;;;6.83;3.67;;;;;;;;;;5039603;28;20169;-67
2024/01/31 14:07:48;;;;;;;7.53;3.83;;;;;;;;;;5052189;28;20170;-69
2024/01/31 14:10:14;;;;;;;4.20;3.80;;;;;;;;;;5061836;22;20238;-72
2024/01/31 14:12:39;;;;;;;4.57;3.60;;;;;;;;;;5050766;28;20181;-70
2024/01/31 14:15:04;;;;;;;4.33;3.63;;;;;;;;;;5043573;28;20210;-71
2024/01/31 14:17:29;;;;;;;8.30;3.97;;;;;;;;;;5049589;28;20189;-70
2024/01/31 14:19:55;;;;;;;4.10;3.53;;;;;;;;;;5042321;28;20186;-71
2024/01/31 14:22:20;;;;;;;3.17;2.73;;;;;;;;;;5030055;28;20183;-69
2024/01/31 14:24:45;;;;;;;2.90;2.60;;;;;;;;;;5030948;28;20221;-70
2024/01/31 14:27:10;;;;;;;3.37;2.73;;;;;;;;;;5032021;28;20253;-70
2024/01/31 14:29:35;;;;;;;5.33;2.60;;;;;;;;;;5029525;28;20210;-70